createdAt,value
2023-06-11T00:00:35.462Z,20
2023-06-11T00:03:06.389Z,20
2023-06-11T00:05:37.521Z,20
2023-06-11T00:08:09.474Z,20
2023-06-11T00:10:40.338Z,20
2023-06-11T00:13:11.648Z,20
2023-06-11T00:15:42.448Z,20
2023-06-11T00:18:13.330Z,20
2023-06-11T00:20:44.152Z,20
2023-06-11T00:23:14.762Z,20
2023-06-11T00:25:46.537Z,20
2023-06-11T00:28:16.869Z,20
2023-06-11T00:30:47.756Z,20
2023-06-11T00:33:18.645Z,20
2023-06-11T00:35:50.603Z,24
2023-06-11T00:38:22.669Z,22
2023-06-11T00:40:55.024Z,20
2023-06-11T00:43:24.180Z,22
2023-06-11T00:45:55.059Z,20
2023-06-11T00:48:25.749Z,20
2023-06-11T00:50:57.112Z,20
2023-06-11T00:53:27.811Z,20
2023-06-11T00:55:58.373Z,20
2023-06-11T00:58:31.916Z,20
2023-06-11T01:01:03.824Z,22
2023-06-11T01:03:39.067Z,20
2023-06-11T01:06:09.764Z,20
2023-06-11T01:08:40.755Z,23
2023-06-11T01:11:14.390Z,20
2023-06-11T01:13:46.136Z,20
2023-06-11T01:16:17.758Z,20
2023-06-11T01:18:48.478Z,20
2023-06-11T01:21:19.450Z,19
2023-06-11T01:23:51.756Z,20
2023-06-11T01:26:22.899Z,20
2023-06-11T01:28:53.972Z,20
2023-06-11T01:31:24.536Z,20
2023-06-11T01:33:55.278Z,20
2023-06-11T01:36:26.360Z,20
2023-06-11T01:38:57.109Z,20
2023-06-11T01:41:26.347Z,20
2023-06-11T01:43:57.583Z,20
2023-06-11T01:46:27.465Z,16
2023-06-11T01:48:59.741Z,20
2023-06-11T01:51:30.930Z,20
2023-06-11T01:54:02.888Z,20
2023-06-11T01:56:35.163Z,20
2023-06-11T01:59:06.096Z,20
2023-06-11T02:01:37.453Z,20
2023-06-11T02:04:10.321Z,20
2023-06-11T02:06:41.973Z,20
2023-06-11T02:09:13.124Z,20
2023-06-11T02:11:44.024Z,20
2023-06-11T02:14:14.889Z,20
2023-06-11T02:16:45.578Z,20
2023-06-11T02:19:16.796Z,20
2023-06-11T02:21:47.857Z,20
2023-06-11T02:24:19.046Z,20
2023-06-11T02:26:49.948Z,16
2023-06-11T02:29:20.529Z,20
2023-06-11T02:31:54.008Z,20
2023-06-11T02:34:25.190Z,20
2023-06-11T02:36:56.955Z,17
2023-06-11T02:39:27.882Z,20
2023-06-11T02:41:58.717Z,20
2023-06-11T02:44:29.402Z,20
2023-06-11T02:47:00.298Z,20
2023-06-11T02:49:30.968Z,20
2023-06-11T02:52:01.974Z,20
2023-06-11T02:54:32.967Z,20
2023-06-11T02:57:03.503Z,20
2023-06-11T02:59:34.289Z,20
2023-06-11T03:02:03.943Z,20
2023-06-11T03:04:35.941Z,20
2023-06-11T03:07:06.909Z,20
2023-06-11T03:09:37.939Z,20
2023-06-11T03:12:08.765Z,20
2023-06-11T03:14:39.455Z,20
2023-06-11T03:17:09.835Z,18
2023-06-11T03:19:39.368Z,18
2023-06-11T03:22:11.590Z,16
2023-06-11T03:24:42.624Z,19
2023-06-11T03:27:15.100Z,20
2023-06-11T03:29:46.611Z,16
2023-06-11T03:32:17.014Z,20
2023-06-11T03:34:46.558Z,20
2023-06-11T03:37:17.508Z,17
2023-06-11T03:39:47.586Z,20
2023-06-11T03:42:19.629Z,18
2023-06-11T03:44:51.593Z,18
2023-06-11T03:47:24.080Z,16
2023-06-11T03:49:55.076Z,16
2023-06-11T03:52:25.870Z,19
2023-06-11T03:54:55.284Z,20
2023-06-11T03:57:27.344Z,16
2023-06-11T03:59:57.969Z,17
2023-06-11T04:02:29.084Z,20
2023-06-11T04:05:00.020Z,16
2023-06-11T04:07:30.570Z,17
2023-06-11T04:10:01.605Z,18
2023-06-11T04:12:32.396Z,18
2023-06-11T04:15:02.945Z,16
2023-06-11T04:17:34.751Z,19
2023-06-11T04:20:05.262Z,16
2023-06-11T04:22:36.229Z,16
2023-06-11T04:25:06.773Z,19
2023-06-11T04:27:37.735Z,16
2023-06-11T04:30:08.275Z,16
2023-06-11T04:32:38.813Z,16
2023-06-11T04:35:08.087Z,16
2023-06-11T04:37:39.785Z,16
2023-06-11T04:40:10.551Z,16
2023-06-11T04:42:41.781Z,16
2023-06-11T04:45:12.867Z,16
2023-06-11T04:47:43.682Z,16
2023-06-11T04:50:15.457Z,16
2023-06-11T04:52:46.476Z,18
2023-06-11T04:55:17.214Z,16
2023-06-11T04:57:48.247Z,16
2023-06-11T05:00:18.849Z,16
2023-06-11T05:02:49.536Z,16
2023-06-11T05:05:20.201Z,16
2023-06-11T05:07:49.567Z,16
2023-06-11T05:10:20.574Z,16
2023-06-11T05:15:30.183Z,16
2023-06-11T05:18:01.889Z,12
2023-06-11T05:20:33.401Z,16
2023-06-11T05:23:04.439Z,12
2023-06-11T05:25:36.648Z,16
2023-06-11T05:28:07.500Z,20
2023-06-11T05:30:38.370Z,24
2023-06-11T05:33:12.066Z,28
2023-06-11T05:35:42.703Z,24
2023-06-11T05:38:13.633Z,24
2023-06-11T05:40:44.985Z,20
2023-06-11T05:43:16.070Z,20
2023-06-11T05:45:46.961Z,32
2023-06-11T05:48:17.946Z,24
2023-06-11T05:50:50.681Z,28
2023-06-11T05:53:21.509Z,20
2023-06-11T05:55:55.334Z,20
2023-06-11T05:58:23.627Z,12
2023-06-11T06:00:54.416Z,14
2023-06-11T06:03:25.515Z,14
2023-06-11T06:05:55.133Z,16
2023-06-11T06:08:26.210Z,16
2023-06-11T06:10:57.012Z,27
2023-06-11T06:13:28.229Z,32
2023-06-11T06:15:58.879Z,24
2023-06-11T06:18:29.655Z,20
2023-06-11T06:21:00.066Z,20
2023-06-11T06:23:32.479Z,19
2023-06-11T06:26:04.964Z,20
2023-06-11T06:28:35.870Z,16
2023-06-11T06:31:06.787Z,24
2023-06-11T06:33:37.755Z,18
2023-06-11T06:36:08.716Z,17
2023-06-11T06:38:41.218Z,24
2023-06-11T06:41:10.484Z,20
2023-06-11T06:43:43.036Z,16
2023-06-11T06:46:14.258Z,20
2023-06-11T06:48:44.730Z,16
2023-06-11T06:51:16.082Z,19
2023-06-11T06:53:46.566Z,20
2023-06-11T06:56:24.366Z,19
2023-06-11T06:58:54.917Z,16
2023-06-11T07:01:25.852Z,16
2023-06-11T07:03:56.730Z,20
2023-06-11T07:06:27.886Z,15
2023-06-11T07:08:57.628Z,24
2023-06-11T07:11:32.127Z,20
2023-06-11T07:14:03.207Z,19
2023-06-11T07:16:34.096Z,18
2023-06-11T07:19:05.127Z,20
2023-06-11T07:21:35.740Z,24
2023-06-11T07:24:06.480Z,16
2023-06-11T07:26:37.546Z,12
2023-06-11T07:29:12.912Z,16
2023-06-11T07:31:43.372Z,16
2023-06-11T07:34:14.722Z,16
2023-06-11T07:36:45.255Z,12
2023-06-11T07:39:16.529Z,12
2023-06-11T07:41:45.711Z,16
2023-06-11T07:44:16.506Z,16
2023-06-11T07:46:48.469Z,10
2023-06-11T07:49:19.070Z,12
2023-06-11T07:51:50.277Z,16
2023-06-11T07:54:21.000Z,12
2023-06-11T07:56:52.105Z,16
2023-06-11T07:59:23.277Z,8
2023-06-11T08:01:54.024Z,12
2023-06-11T08:04:25.120Z,12
2023-06-11T08:06:55.752Z,12
2023-06-11T08:09:28.419Z,12
2023-06-11T08:11:59.131Z,8
2023-06-11T08:14:31.039Z,8
2023-06-11T08:17:01.691Z,16
2023-06-11T08:19:32.389Z,12
2023-06-11T08:22:01.607Z,8
2023-06-11T08:24:32.651Z,11
2023-06-11T08:27:03.330Z,8
2023-06-11T08:29:34.084Z,12
2023-06-11T08:32:05.204Z,8
2023-06-11T08:34:35.780Z,8
2023-06-11T08:37:07.053Z,12
2023-06-11T08:39:36.858Z,14
2023-06-11T08:42:10.451Z,8
2023-06-11T08:44:41.281Z,13
2023-06-11T08:47:11.740Z,12
2023-06-11T08:49:42.473Z,12
2023-06-11T08:52:14.275Z,9
2023-06-11T08:54:44.706Z,12
2023-06-11T08:57:16.127Z,11
2023-06-11T08:59:47.065Z,11
2023-06-11T09:02:17.899Z,9
2023-06-11T09:04:48.674Z,12
2023-06-11T09:07:19.578Z,9
2023-06-11T09:09:49.833Z,12
2023-06-11T09:12:20.312Z,12
2023-06-11T09:14:51.627Z,16
2023-06-11T09:17:22.094Z,16
2023-06-11T09:19:53.052Z,13
2023-06-11T09:22:23.558Z,16
2023-06-11T09:24:55.347Z,16
2023-06-11T09:27:25.908Z,20
2023-06-11T09:29:56.631Z,20
2023-06-11T09:32:33.707Z,30
2023-06-11T09:34:58.704Z,16
2023-06-11T09:37:28.942Z,16
2023-06-11T09:39:59.952Z,24
2023-06-11T09:42:30.465Z,24
2023-06-11T09:45:01.113Z,22
2023-06-11T09:47:31.703Z,24
2023-06-11T09:50:00.694Z,33
2023-06-11T09:52:30.062Z,20
2023-06-11T09:55:00.497Z,20
2023-06-11T09:57:30.766Z,20
2023-06-11T10:00:02.110Z,20
2023-06-11T10:02:31.199Z,20
2023-06-11T10:05:02.906Z,20
2023-06-11T10:07:33.358Z,16
2023-06-11T10:10:05.096Z,15
2023-06-11T10:12:35.433Z,16
2023-06-11T10:15:06.229Z,16
2023-06-11T10:17:36.861Z,16
2023-06-11T10:20:08.289Z,20
2023-06-11T10:22:38.900Z,16
2023-06-11T10:25:09.469Z,20
2023-06-11T10:27:39.811Z,24
2023-06-11T10:30:11.886Z,21
2023-06-11T10:32:42.581Z,20
2023-06-11T10:35:13.239Z,20
2023-06-11T10:37:43.675Z,19
2023-06-11T10:40:14.716Z,19
2023-06-11T10:42:43.523Z,19
2023-06-11T10:45:14.217Z,16
2023-06-11T10:47:45.007Z,16
2023-06-11T10:50:16.568Z,16
2023-06-11T10:52:46.607Z,16
2023-06-11T10:55:15.482Z,16
2023-06-11T10:57:47.340Z,16
2023-06-11T11:00:17.761Z,16
2023-06-11T11:02:48.976Z,20
2023-06-11T11:05:19.742Z,16
2023-06-11T11:07:51.437Z,16
2023-06-11T11:10:22.244Z,20
2023-06-11T11:12:54.263Z,17
2023-06-11T11:15:24.912Z,20
2023-06-11T11:17:55.235Z,20
2023-06-11T11:20:25.975Z,19
2023-06-11T11:22:57.187Z,12
2023-06-11T11:25:28.161Z,16
2023-06-11T11:27:58.811Z,16
2023-06-11T11:30:30.965Z,20
2023-06-11T11:33:01.870Z,16
2023-06-11T11:35:32.672Z,12
2023-06-11T11:38:03.741Z,12
2023-06-11T11:40:34.015Z,12
2023-06-11T11:43:05.116Z,20
2023-06-11T11:45:35.733Z,12
2023-06-11T11:48:06.291Z,16
2023-06-11T11:50:37.233Z,16
2023-06-11T11:53:11.027Z,16
2023-06-11T11:55:52.175Z,16
2023-06-11T11:58:12.016Z,16
2023-06-11T12:00:42.674Z,15
2023-06-11T12:03:13.435Z,13
2023-06-11T12:05:44.781Z,16
2023-06-11T12:08:15.426Z,20
2023-06-11T12:10:48.007Z,16
2023-06-11T12:13:18.272Z,16
2023-06-11T12:15:48.899Z,16
2023-06-11T12:18:19.783Z,16
2023-06-11T12:20:50.372Z,17
2023-06-11T12:23:20.878Z,12
2023-06-11T12:25:51.311Z,12
2023-06-11T12:28:21.878Z,12
2023-06-11T12:30:52.388Z,12
2023-06-11T12:33:22.858Z,8
2023-06-11T12:35:53.309Z,12
2023-06-11T12:38:25.845Z,8
2023-06-11T12:40:56.366Z,12
2023-06-11T12:43:27.401Z,12
2023-06-11T12:45:59.106Z,12
2023-06-11T12:48:30.067Z,16
2023-06-11T12:51:00.663Z,9
2023-06-11T12:53:31.173Z,12
2023-06-11T12:56:01.987Z,14
2023-06-11T12:58:32.427Z,12
2023-06-11T13:01:02.957Z,16
2023-06-11T13:03:33.661Z,12
2023-06-11T13:06:05.203Z,12
2023-06-11T13:08:36.017Z,16
2023-06-11T13:11:06.576Z,12
2023-06-11T13:13:37.669Z,16
2023-06-11T13:16:08.527Z,20
2023-06-11T13:18:39.623Z,12
2023-06-11T13:21:11.316Z,12
2023-06-11T13:23:41.909Z,12
2023-06-11T13:26:12.368Z,20
2023-06-11T13:28:43.114Z,16
2023-06-11T13:31:13.786Z,16
2023-06-11T13:33:44.304Z,12
2023-06-11T13:36:14.940Z,16
2023-06-11T13:38:45.885Z,17
2023-06-11T13:41:16.502Z,20
2023-06-11T13:43:47.876Z,12
2023-06-11T13:46:18.331Z,16
2023-06-11T13:48:48.717Z,20
2023-06-11T13:51:20.377Z,12
2023-06-11T13:53:51.486Z,16
2023-06-11T13:56:21.891Z,16
2023-06-11T13:58:52.462Z,16
2023-06-11T14:01:23.675Z,16
2023-06-11T14:03:54.601Z,12
2023-06-11T14:06:26.660Z,8
2023-06-11T14:08:56.971Z,16
2023-06-11T14:11:27.469Z,20
2023-06-11T14:13:58.148Z,12
2023-06-11T14:16:28.916Z,12
2023-06-11T14:18:59.626Z,8
2023-06-11T14:21:30.602Z,12
2023-06-11T14:24:01.308Z,12
2023-06-11T14:26:32.376Z,12
2023-06-11T14:29:03.020Z,8
2023-06-11T14:31:34.794Z,9
2023-06-11T14:34:06.333Z,8
2023-06-11T14:36:36.646Z,12
2023-06-11T14:39:07.146Z,8
2023-06-11T14:41:37.897Z,12
2023-06-11T14:44:08.545Z,12
2023-06-11T14:46:39.757Z,8
2023-06-11T14:49:11.711Z,11
2023-06-11T14:51:41.448Z,8
2023-06-11T14:54:11.921Z,8
2023-06-11T14:56:42.779Z,9
2023-06-11T14:59:13.642Z,16
2023-06-11T15:01:44.350Z,5
2023-06-11T15:04:15.165Z,12
2023-06-11T15:06:45.847Z,12
2023-06-11T15:09:16.619Z,9
2023-06-11T15:11:48.681Z,8
2023-06-11T15:14:18.962Z,12
2023-06-11T15:16:48.359Z,12
2023-06-11T15:19:18.689Z,4
2023-06-11T15:21:49.447Z,8
2023-06-11T15:24:20.879Z,8
2023-06-11T15:26:51.584Z,12
2023-06-11T15:29:22.285Z,12
2023-06-11T15:31:52.915Z,8
2023-06-11T15:34:23.389Z,8
2023-06-11T15:36:54.218Z,16
2023-06-11T15:39:24.913Z,16
2023-06-11T15:41:56.114Z,20
2023-06-11T15:44:26.572Z,16
2023-06-11T15:46:57.924Z,20
2023-06-11T15:49:28.724Z,12
2023-06-11T15:51:59.576Z,16
2023-06-11T15:54:30.301Z,16
2023-06-11T15:57:01.625Z,8
2023-06-11T15:59:32.129Z,11
2023-06-11T16:02:03.088Z,12
2023-06-11T16:04:34.241Z,11
2023-06-11T16:07:04.946Z,12
2023-06-11T16:09:35.965Z,12
2023-06-11T16:12:07.945Z,12
2023-06-11T16:14:38.646Z,12
2023-06-11T16:17:07.980Z,16
2023-06-11T16:19:38.441Z,12
2023-06-11T16:22:12.123Z,20
2023-06-11T16:24:40.324Z,20
2023-06-11T16:27:11.548Z,16
2023-06-11T16:29:42.812Z,16
2023-06-11T16:32:13.985Z,15
2023-06-11T16:34:42.662Z,12
2023-06-11T16:37:12.003Z,12
2023-06-11T16:39:42.420Z,12
2023-06-11T16:42:13.813Z,8
2023-06-11T16:44:42.852Z,12
2023-06-11T16:47:14.000Z,12
2023-06-11T16:49:44.634Z,12
2023-06-11T16:52:15.433Z,12
2023-06-11T16:54:45.985Z,8
2023-06-11T16:57:16.912Z,8
2023-06-11T16:59:47.434Z,12
2023-06-11T17:02:18.093Z,11
2023-06-11T17:04:48.489Z,12
2023-06-11T17:07:19.338Z,12
2023-06-11T17:09:50.469Z,8
2023-06-11T17:12:21.568Z,8
2023-06-11T17:14:54.464Z,8
2023-06-11T17:17:23.922Z,8
2023-06-11T17:19:54.933Z,12
2023-06-11T17:22:25.987Z,8
2023-06-11T17:24:59.111Z,8
2023-06-11T17:27:30.387Z,12
2023-06-11T17:30:02.936Z,12
2023-06-11T17:32:39.039Z,8
2023-06-11T17:35:09.411Z,8
2023-06-11T17:37:40.060Z,8
2023-06-11T17:40:11.647Z,12
2023-06-11T17:42:42.288Z,8
2023-06-11T17:45:12.932Z,9
2023-06-11T17:47:43.622Z,8
2023-06-11T17:50:15.289Z,8
2023-06-11T17:52:46.130Z,12
2023-06-11T17:55:16.730Z,12
2023-06-11T17:57:47.292Z,16
2023-06-11T18:00:16.554Z,12
2023-06-11T18:02:48.223Z,8
2023-06-11T18:05:18.683Z,19
2023-06-11T18:07:49.332Z,20
2023-06-11T18:10:19.811Z,23
2023-06-11T18:12:50.551Z,16
2023-06-11T18:17:51.674Z,16
2023-06-11T18:20:22.465Z,12
2023-06-11T18:22:52.893Z,12
2023-06-11T18:25:23.759Z,13
2023-06-11T18:27:55.093Z,12
2023-06-11T18:30:26.092Z,16
2023-06-11T18:32:56.980Z,8
2023-06-11T18:35:25.845Z,12
2023-06-11T18:37:57.116Z,12
2023-06-11T18:40:27.374Z,12
2023-06-11T18:42:58.131Z,12
2023-06-11T18:45:29.399Z,12
2023-06-11T18:48:02.953Z,12
2023-06-11T18:50:33.674Z,12
2023-06-11T18:53:04.188Z,16
2023-06-11T18:55:35.813Z,12
2023-06-11T18:58:10.834Z,20
2023-06-11T19:00:41.310Z,16
2023-06-11T19:03:12.375Z,20
2023-06-11T19:05:42.759Z,20
2023-06-11T19:08:13.272Z,16
2023-06-11T19:10:44.111Z,16
2023-06-11T19:13:14.208Z,16
2023-06-11T19:15:46.571Z,16
2023-06-11T19:18:17.183Z,16
2023-06-11T19:20:47.989Z,16
2023-06-11T19:23:18.435Z,16
2023-06-11T19:25:49.002Z,16
2023-06-11T19:28:19.398Z,16
2023-06-11T19:30:51.053Z,16
2023-06-11T19:33:21.459Z,16
2023-06-11T19:35:51.927Z,22
2023-06-11T19:38:22.642Z,20
2023-06-11T19:40:53.393Z,16
2023-06-11T19:43:23.957Z,12
2023-06-11T19:45:54.320Z,16
2023-06-11T19:48:24.947Z,15
2023-06-11T19:50:55.698Z,16
2023-06-11T19:53:24.199Z,16
2023-06-11T19:55:54.983Z,20
2023-06-11T19:58:25.571Z,20
2023-06-11T20:00:56.628Z,16
2023-06-11T20:03:26.842Z,12
2023-06-11T20:05:57.277Z,16
2023-06-11T20:08:27.800Z,12
2023-06-11T20:10:58.534Z,16
2023-06-11T20:13:30.025Z,12
2023-06-11T20:15:59.013Z,12
2023-06-11T20:18:31.232Z,12
2023-06-11T20:21:01.983Z,16
2023-06-11T20:23:33.129Z,19
2023-06-11T20:26:04.015Z,16
2023-06-11T20:28:34.558Z,13
2023-06-11T20:31:07.309Z,16
2023-06-11T20:33:37.778Z,16
2023-06-11T20:36:08.569Z,12
2023-06-11T20:38:39.624Z,16
2023-06-11T20:41:11.742Z,16
2023-06-11T20:43:42.738Z,24
2023-06-11T20:46:27.633Z,16
2023-06-11T20:48:46.276Z,16
2023-06-11T20:51:16.876Z,16
2023-06-11T20:53:47.764Z,16
2023-06-11T20:56:18.422Z,16
2023-06-11T20:58:50.255Z,15
2023-06-11T21:01:22.003Z,16
2023-06-11T21:03:52.765Z,16
2023-06-11T21:06:23.191Z,16
2023-06-11T21:08:54.081Z,16
2023-06-11T21:11:24.792Z,16
2023-06-11T21:14:08.757Z,15
2023-06-11T21:16:24.609Z,16
2023-06-11T21:18:55.168Z,15
2023-06-11T21:21:25.730Z,17
2023-06-11T21:23:57.122Z,16
2023-06-11T21:26:27.651Z,16
2023-06-11T21:28:58.400Z,14
2023-06-11T21:31:29.892Z,13
2023-06-11T21:34:00.237Z,15
2023-06-11T21:36:31.112Z,16
2023-06-11T21:39:01.723Z,15
2023-06-11T21:41:32.268Z,12
2023-06-11T21:44:03.168Z,12
2023-06-11T21:46:34.253Z,12
2023-06-11T21:49:04.901Z,12
2023-06-11T21:51:35.685Z,12
2023-06-11T21:54:06.462Z,12
2023-06-11T21:56:37.331Z,12
2023-06-11T21:59:08.200Z,12
2023-06-11T22:01:39.047Z,12
2023-06-11T22:04:09.584Z,16
2023-06-11T22:06:40.147Z,12
2023-06-11T22:09:10.919Z,13
2023-06-11T22:11:41.800Z,16
2023-06-11T22:14:12.712Z,16
2023-06-11T22:16:43.844Z,16
2023-06-11T22:19:14.335Z,12
2023-06-11T22:21:45.182Z,16
2023-06-11T22:24:15.864Z,16
2023-06-11T22:26:44.769Z,16
2023-06-11T22:29:15.463Z,12
2023-06-11T22:31:46.173Z,14
2023-06-11T22:34:18.427Z,12
2023-06-11T22:36:49.884Z,14
2023-06-11T22:39:20.644Z,14
2023-06-11T22:41:51.514Z,13
2023-06-11T22:44:22.901Z,15
2023-06-11T22:46:53.544Z,12
2023-06-11T22:49:24.128Z,12
2023-06-11T22:51:54.841Z,16
2023-06-11T22:54:25.535Z,15
2023-06-11T22:56:56.054Z,16
2023-06-11T22:59:26.798Z,16
2023-06-11T23:01:57.568Z,16
2023-06-11T23:04:28.379Z,13
2023-06-11T23:06:58.940Z,12
2023-06-11T23:09:29.388Z,12
2023-06-11T23:12:00.030Z,12
2023-06-11T23:14:30.017Z,12
2023-06-11T23:17:00.430Z,12
2023-06-11T23:19:31.502Z,12
2023-06-11T23:22:02.251Z,12
2023-06-11T23:24:33.343Z,12
2023-06-11T23:27:04.424Z,12
2023-06-11T23:29:35.431Z,12
2023-06-11T23:32:06.193Z,16
2023-06-11T23:34:36.789Z,12
2023-06-11T23:37:07.564Z,12
2023-06-11T23:39:40.507Z,14
2023-06-11T23:42:11.455Z,12
2023-06-11T23:44:42.517Z,13
2023-06-11T23:47:13.321Z,12
2023-06-11T23:49:44.284Z,12
2023-06-11T23:52:15.454Z,12
2023-06-11T23:54:48.098Z,10
2023-06-11T23:57:18.907Z,12
2023-06-11T23:59:50.050Z,12
